createdAt,value
2018-08-18T00:00:26.888Z,1.52
2018-08-18T00:02:56.332Z,1.40
2018-08-18T00:05:25.818Z,1.42
2018-08-18T00:07:55.308Z,1.80
2018-08-18T00:10:24.765Z,1.45
2018-08-18T00:12:54.138Z,1.50
2018-08-18T00:15:23.560Z,1.50
2018-08-18T00:17:53.080Z,2.05
2018-08-18T00:20:26.057Z,1.98
2018-08-18T00:22:55.460Z,1.90
2018-08-18T00:25:24.966Z,2.02
2018-08-18T00:27:55.833Z,1.90
2018-08-18T00:30:27.673Z,1.60
2018-08-18T00:32:57.078Z,1.65
2018-08-18T00:35:26.593Z,1.60
2018-08-18T00:37:56.033Z,1.60
2018-08-18T00:40:25.424Z,1.82
2018-08-18T00:42:55.143Z,1.55
2018-08-18T00:45:24.510Z,1.17
2018-08-18T00:47:53.898Z,1.77
2018-08-18T00:50:42.887Z,1.62
2018-08-18T00:53:14.345Z,1.67
2018-08-18T00:55:43.736Z,1.50
2018-08-18T00:58:21.629Z,2.00
2018-08-18T01:00:56.393Z,1.60
2018-08-18T01:03:40.390Z,1.80
2018-08-18T01:06:41.958Z,1.50
2018-08-18T01:09:12.893Z,1.50
2018-08-18T01:11:42.476Z,1.60
2018-08-18T01:14:17.335Z,1.70
2018-08-18T01:16:50.864Z,1.67
2018-08-18T01:19:21.629Z,1.60
2018-08-18T01:21:56.611Z,1.40
2018-08-18T01:24:26.165Z,1.60
2018-08-18T01:26:55.707Z,1.55
2018-08-18T01:29:25.119Z,1.67
2018-08-18T01:31:54.528Z,1.47
2018-08-18T01:34:24.025Z,1.50
2018-08-18T01:36:53.565Z,1.80
2018-08-18T01:39:23.002Z,1.50
2018-08-18T01:41:52.440Z,1.60
2018-08-18T01:44:23.533Z,1.92
2018-08-18T01:46:54.046Z,1.77
2018-08-18T01:49:33.145Z,1.70
2018-08-18T01:52:11.143Z,1.82
2018-08-18T01:54:40.780Z,1.55
2018-08-18T01:57:11.107Z,1.95
2018-08-18T01:59:42.793Z,1.62
2018-08-18T02:02:15.749Z,1.92
2018-08-18T02:04:45.906Z,1.85
2018-08-18T02:07:21.755Z,1.55
2018-08-18T02:09:51.265Z,1.57
2018-08-18T02:12:20.949Z,1.82
2018-08-18T02:14:50.356Z,1.70
2018-08-18T02:17:29.499Z,2.10
2018-08-18T02:19:59.605Z,2.20
2018-08-18T02:22:29.758Z,1.62
2018-08-18T02:24:59.277Z,1.77
2018-08-18T02:27:28.748Z,1.90
2018-08-18T02:30:14.847Z,1.72
2018-08-18T02:32:44.195Z,1.80
2018-08-18T02:35:13.787Z,1.72
2018-08-18T02:37:43.249Z,1.80
2018-08-18T02:41:19.266Z,1.57
2018-08-18T02:43:49.351Z,1.82
2018-08-18T02:46:30.013Z,1.70
2018-08-18T02:49:00.208Z,2.15
2018-08-18T02:51:29.938Z,1.98
2018-08-18T02:53:59.735Z,2.02
2018-08-18T02:56:34.349Z,2.10
2018-08-18T02:59:05.288Z,2.17
2018-08-18T03:01:34.722Z,2.60
2018-08-18T03:04:12.380Z,2.50
2018-08-18T03:06:42.103Z,2.25
2018-08-18T03:09:12.558Z,2.35
2018-08-18T03:11:43.098Z,2.55
2018-08-18T03:14:12.513Z,3.00
2018-08-18T03:16:43.045Z,2.98
2018-08-18T03:19:14.978Z,2.95
2018-08-18T03:21:44.609Z,2.85
2018-08-18T03:24:20.070Z,3.00
2018-08-18T03:26:53.464Z,2.77
2018-08-18T03:29:24.166Z,2.50
2018-08-18T03:31:54.032Z,2.42
2018-08-18T03:34:23.564Z,2.55
2018-08-18T03:36:54.209Z,3.02
2018-08-18T03:39:29.539Z,2.90
2018-08-18T03:42:01.128Z,3.20
2018-08-18T03:44:30.584Z,2.92
2018-08-18T03:47:00.054Z,3.25
2018-08-18T03:49:29.545Z,3.15
2018-08-18T03:51:58.906Z,3.60
2018-08-18T03:54:28.276Z,3.83
2018-08-18T03:56:57.793Z,3.10
2018-08-18T03:59:27.328Z,4.12
2018-08-18T04:01:59.537Z,3.83
2018-08-18T04:04:34.312Z,3.90
2018-08-18T04:07:04.743Z,2.98
2018-08-18T04:09:36.097Z,3.15
2018-08-18T04:12:06.919Z,3.10
2018-08-18T04:14:42.429Z,3.55
2018-08-18T04:17:30.693Z,3.67
2018-08-18T04:20:00.033Z,3.85
2018-08-18T04:22:29.613Z,4.30
2018-08-18T04:24:59.063Z,3.92
2018-08-18T04:27:49.096Z,4.12
2018-08-18T04:30:22.620Z,4.53
2018-08-18T04:32:58.157Z,5.08
2018-08-18T04:35:28.670Z,4.55
2018-08-18T04:37:59.563Z,4.87
2018-08-18T04:40:29.524Z,4.60
2018-08-18T04:43:00.441Z,5.20
2018-08-18T04:45:29.887Z,5.35
2018-08-18T04:47:59.347Z,5.30
2018-08-18T04:50:29.537Z,5.45
2018-08-18T04:52:58.897Z,4.92
2018-08-18T04:55:28.310Z,5.37
2018-08-18T04:57:57.661Z,5.10
2018-08-18T05:00:28.723Z,5.35
2018-08-18T05:02:59.212Z,5.17
2018-08-18T05:05:30.714Z,5.35
2018-08-18T05:08:01.668Z,5.03
2018-08-18T05:10:31.134Z,5.05
2018-08-18T05:13:00.597Z,5.53
2018-08-18T05:15:30.071Z,4.85
2018-08-18T05:17:59.604Z,5.08
2018-08-18T05:20:29.166Z,5.15
2018-08-18T05:23:18.084Z,5.35
2018-08-18T05:25:47.823Z,4.30
2018-08-18T05:28:17.248Z,5.15
2018-08-18T05:30:51.165Z,4.70
2018-08-18T05:33:20.857Z,4.75
2018-08-18T05:35:50.341Z,4.50
2018-08-18T05:38:19.836Z,4.60
2018-08-18T05:40:49.211Z,5.10
2018-08-18T05:43:18.774Z,4.70
2018-08-18T05:45:48.251Z,4.35
2018-08-18T05:48:17.593Z,5.03
2018-08-18T05:50:46.969Z,4.55
2018-08-18T05:53:22.569Z,4.85
2018-08-18T05:55:52.288Z,4.65
2018-08-18T05:58:21.871Z,4.35
2018-08-18T06:00:55.948Z,4.47
2018-08-18T06:03:27.021Z,4.37
2018-08-18T06:05:58.387Z,5.40
2018-08-18T06:08:27.968Z,4.55
2018-08-18T06:10:57.415Z,4.70
2018-08-18T06:13:27.299Z,4.80
2018-08-18T06:16:10.685Z,4.85
2018-08-18T06:18:40.990Z,4.37
2018-08-18T06:21:10.574Z,5.17
2018-08-18T06:23:40.298Z,4.58
2018-08-18T06:26:09.799Z,4.78
2018-08-18T06:28:39.257Z,5.67
2018-08-18T06:31:08.801Z,5.10
2018-08-18T06:33:38.201Z,4.08
2018-08-18T06:36:07.731Z,3.75
2018-08-18T06:38:37.337Z,4.53
2018-08-18T06:41:07.373Z,4.35
2018-08-18T06:43:36.666Z,4.22
2018-08-18T06:46:06.164Z,4.60
2018-08-18T06:48:36.733Z,4.25
2018-08-18T06:51:06.768Z,4.72
2018-08-18T06:53:41.464Z,3.92
2018-08-18T06:56:11.061Z,4.42
2018-08-18T06:58:40.539Z,4.03
2018-08-18T07:01:10.728Z,4.25
2018-08-18T07:03:45.346Z,3.65
2018-08-18T07:06:16.501Z,3.95
2018-08-18T07:08:51.020Z,4.50
2018-08-18T07:11:20.425Z,4.08
2018-08-18T07:13:50.523Z,4.08
2018-08-18T07:16:20.142Z,4.15
2018-08-18T07:18:49.491Z,4.47
2018-08-18T07:21:18.895Z,4.35
2018-08-18T07:23:48.294Z,4.60
2018-08-18T07:26:17.611Z,3.95
2018-08-18T07:28:47.081Z,3.33
2018-08-18T07:31:16.365Z,4.97
2018-08-18T07:33:45.801Z,3.67
2018-08-18T07:36:15.158Z,3.70
2018-08-18T07:38:44.698Z,4.67
2018-08-18T07:41:14.169Z,4.20
2018-08-18T07:43:43.689Z,4.17
2018-08-18T07:46:13.220Z,4.17
2018-08-18T07:48:42.615Z,4.42
2018-08-18T07:51:12.116Z,4.47
2018-08-18T07:53:41.645Z,4.45
2018-08-18T07:56:11.193Z,5.15
2018-08-18T07:58:46.770Z,5.05
2018-08-18T08:01:16.190Z,4.90
2018-08-18T08:03:45.590Z,4.33
2018-08-18T08:06:14.944Z,4.65
2018-08-18T08:08:48.166Z,4.90
2018-08-18T08:11:17.672Z,4.62
2018-08-18T08:13:47.097Z,4.22
2018-08-18T08:16:16.540Z,4.35
2018-08-18T08:18:45.918Z,4.03
2018-08-18T08:21:15.382Z,3.75
2018-08-18T08:23:44.785Z,4.62
2018-08-18T08:26:14.295Z,4.70
2018-08-18T08:28:43.674Z,3.70
2018-08-18T08:31:13.076Z,3.83
2018-08-18T08:33:42.453Z,4.90
2018-08-18T08:36:15.969Z,4.90
2018-08-18T08:38:57.312Z,4.20
2018-08-18T08:41:30.329Z,4.78
2018-08-18T08:43:59.831Z,4.55
2018-08-18T08:46:29.310Z,3.92
2018-08-18T08:49:01.393Z,3.60
2018-08-18T08:51:31.337Z,3.27
2018-08-18T08:54:01.225Z,4.33
2018-08-18T08:56:45.280Z,4.05
2018-08-18T08:59:14.835Z,4.08
2018-08-18T09:01:44.347Z,3.37
2018-08-18T09:04:13.889Z,4.85
2018-08-18T09:06:47.964Z,4.00
2018-08-18T09:09:17.364Z,4.10
2018-08-18T09:11:46.768Z,4.78
2018-08-18T09:14:16.169Z,5.25
2018-08-18T09:16:45.641Z,4.83
2018-08-18T09:19:15.156Z,3.85
2018-08-18T09:21:49.695Z,3.87
2018-08-18T09:24:19.875Z,3.77
2018-08-18T09:26:54.059Z,3.75
2018-08-18T09:29:24.200Z,4.00
2018-08-18T09:31:53.680Z,4.25
2018-08-18T09:34:23.656Z,3.87
2018-08-18T09:36:53.052Z,4.00
2018-08-18T09:39:26.622Z,3.95
2018-08-18T09:41:56.021Z,3.87
2018-08-18T09:44:33.070Z,4.50
2018-08-18T09:47:02.586Z,4.03
2018-08-18T09:49:32.643Z,3.75
2018-08-18T09:52:02.363Z,4.00
2018-08-18T09:54:31.867Z,4.72
2018-08-18T09:57:01.455Z,10.45
2018-08-18T09:59:31.156Z,5.03
2018-08-18T10:04:41.097Z,4.22
2018-08-18T10:07:10.801Z,5.00
2018-08-18T10:09:40.583Z,4.30
2018-08-18T10:12:10.074Z,4.03
2018-08-18T10:14:39.559Z,5.15
2018-08-18T10:17:08.960Z,5.53
2018-08-18T10:19:38.329Z,5.37
2018-08-18T10:22:07.840Z,4.00
2018-08-18T10:24:37.251Z,4.50
2018-08-18T10:27:07.192Z,3.42
2018-08-18T10:29:36.620Z,4.22
2018-08-18T10:32:06.084Z,4.62
2018-08-18T10:34:35.503Z,4.03
2018-08-18T10:37:05.939Z,4.05
2018-08-18T10:39:37.082Z,4.20
2018-08-18T10:42:13.556Z,3.77
2018-08-18T10:44:49.486Z,3.98
2018-08-18T10:47:20.437Z,3.72
2018-08-18T10:50:06.622Z,3.62
2018-08-18T10:52:52.869Z,3.17
2018-08-18T10:55:22.272Z,2.65
2018-08-18T10:58:01.435Z,3.15
2018-08-18T11:00:32.014Z,3.40
2018-08-18T11:03:03.014Z,3.77
2018-08-18T11:05:32.632Z,3.45
2018-08-18T11:08:09.027Z,3.58
2018-08-18T11:10:40.285Z,3.05
2018-08-18T11:13:09.825Z,3.00
2018-08-18T11:15:39.316Z,2.55
2018-08-18T11:18:08.942Z,2.40
2018-08-18T11:20:38.373Z,3.25
2018-08-18T11:23:08.958Z,3.10
2018-08-18T11:25:51.123Z,4.17
2018-08-18T11:28:21.478Z,3.58
2018-08-18T11:30:53.349Z,2.95
2018-08-18T11:33:42.337Z,3.33
2018-08-18T11:36:12.541Z,2.90
2018-08-18T11:38:42.013Z,2.60
2018-08-18T11:41:11.524Z,3.00
2018-08-18T11:43:50.728Z,3.12
2018-08-18T11:46:20.204Z,2.90
2018-08-18T11:48:49.665Z,2.60
2018-08-18T11:51:19.243Z,3.25
2018-08-18T11:54:00.287Z,2.70
2018-08-18T11:56:30.038Z,2.27
2018-08-18T11:59:09.754Z,2.08
2018-08-18T12:01:40.604Z,2.33
2018-08-18T12:04:10.086Z,2.72
2018-08-18T12:06:48.008Z,2.52
2018-08-18T12:09:17.601Z,2.27
2018-08-18T12:11:48.698Z,2.80
2018-08-18T12:14:18.208Z,2.67
2018-08-18T12:16:47.720Z,3.00
2018-08-18T12:19:17.374Z,2.42
2018-08-18T12:21:47.566Z,2.40
2018-08-18T12:24:19.908Z,2.55
2018-08-18T12:27:07.894Z,3.15
2018-08-18T12:29:37.382Z,2.65
2018-08-18T12:32:13.148Z,2.17
2018-08-18T12:34:42.560Z,2.22
2018-08-18T12:37:14.014Z,2.47
2018-08-18T12:39:43.685Z,2.40
2018-08-18T12:42:17.165Z,2.50
2018-08-18T12:44:46.989Z,2.15
2018-08-18T12:47:16.369Z,2.20
2018-08-18T12:49:45.843Z,2.25
2018-08-18T12:52:15.251Z,2.20
2018-08-18T12:54:44.659Z,2.30
2018-08-18T12:57:14.716Z,2.08
2018-08-18T12:59:44.041Z,2.20
2018-08-18T13:02:13.425Z,2.30
2018-08-18T13:04:42.801Z,2.27
2018-08-18T13:07:12.219Z,2.25
2018-08-18T13:09:41.618Z,2.35
2018-08-18T13:12:11.026Z,2.12
2018-08-18T13:14:40.540Z,3.22
2018-08-18T13:17:09.937Z,3.87
2018-08-18T13:19:39.368Z,3.70
2018-08-18T13:22:08.724Z,3.77
2018-08-18T13:24:38.085Z,3.17
2018-08-18T13:27:07.480Z,3.40
2018-08-18T13:29:36.997Z,3.12
2018-08-18T13:32:06.634Z,2.95
2018-08-18T13:34:36.024Z,2.98
2018-08-18T13:37:05.555Z,3.30
2018-08-18T13:39:34.962Z,3.20
2018-08-18T13:42:20.992Z,4.20
2018-08-18T13:44:50.909Z,3.35
2018-08-18T13:47:20.533Z,3.60
2018-08-18T13:49:57.915Z,3.90
2018-08-18T13:52:33.246Z,2.90
2018-08-18T13:55:03.176Z,3.67
2018-08-18T13:57:33.796Z,3.70
2018-08-18T14:00:03.209Z,3.98
2018-08-18T14:02:32.561Z,3.00
2018-08-18T14:05:01.961Z,3.45
2018-08-18T14:07:36.821Z,3.47
2018-08-18T14:10:06.335Z,3.85
2018-08-18T14:12:35.698Z,3.77
2018-08-18T14:15:05.298Z,3.92
2018-08-18T14:17:34.701Z,3.87
2018-08-18T14:20:04.176Z,3.15
2018-08-18T14:22:33.645Z,2.92
2018-08-18T14:25:03.213Z,2.33
2018-08-18T14:27:33.135Z,2.92
2018-08-18T14:30:02.520Z,3.08
2018-08-18T14:32:32.105Z,2.90
2018-08-18T14:35:07.635Z,3.33
2018-08-18T14:37:39.784Z,2.62
2018-08-18T14:40:15.075Z,2.62
2018-08-18T14:42:45.902Z,3.05
2018-08-18T14:45:18.352Z,3.00
2018-08-18T14:47:48.973Z,3.33
2018-08-18T14:50:28.230Z,3.95
2018-08-18T14:52:57.800Z,3.65
2018-08-18T14:55:27.361Z,2.85
2018-08-18T14:58:00.046Z,2.47
2018-08-18T15:00:30.359Z,3.10
2018-08-18T15:02:59.829Z,2.47
2018-08-18T15:05:29.187Z,2.80
2018-08-18T15:07:59.436Z,2.72
2018-08-18T15:10:46.840Z,2.50
2018-08-18T15:13:16.858Z,3.87
2018-08-18T15:15:46.343Z,2.72
2018-08-18T15:18:16.897Z,2.30
2018-08-18T15:20:46.898Z,2.67
2018-08-18T15:23:17.000Z,2.58
2018-08-18T15:25:47.553Z,2.00
2018-08-18T15:28:19.862Z,2.30
2018-08-18T15:30:52.544Z,2.33
2018-08-18T15:33:23.387Z,2.17
2018-08-18T15:35:52.786Z,2.27
2018-08-18T15:38:57.459Z,2.02
2018-08-18T15:41:26.833Z,2.22
2018-08-18T15:43:56.320Z,2.40
2018-08-18T15:46:25.780Z,2.42
2018-08-18T15:48:55.201Z,2.58
2018-08-18T15:51:24.673Z,2.60
2018-08-18T15:53:55.540Z,2.50
2018-08-18T15:56:25.997Z,2.80
2018-08-18T15:58:56.203Z,2.40
2018-08-18T16:01:27.949Z,2.15
2018-08-18T16:03:58.916Z,2.22
2018-08-18T16:06:28.323Z,2.50
2018-08-18T16:08:57.768Z,2.60
2018-08-18T16:11:27.156Z,2.00
2018-08-18T16:13:56.650Z,2.50
2018-08-18T16:16:25.981Z,2.35
2018-08-18T16:19:03.713Z,2.95
2018-08-18T16:21:34.750Z,3.62
2018-08-18T16:24:04.253Z,3.00
2018-08-18T16:26:33.636Z,2.50
2018-08-18T16:29:03.922Z,2.42
2018-08-18T16:31:33.279Z,2.52
2018-08-18T16:34:02.666Z,2.62
2018-08-18T16:36:37.220Z,1.90
2018-08-18T16:39:06.755Z,2.05
2018-08-18T16:41:36.286Z,2.20
2018-08-18T16:44:05.864Z,2.20
2018-08-18T16:46:35.370Z,1.87
2018-08-18T16:49:04.904Z,2.30
2018-08-18T16:51:34.348Z,2.55
2018-08-18T16:54:20.600Z,2.17
2018-08-18T16:56:50.121Z,2.22
2018-08-18T16:59:19.607Z,2.05
2018-08-18T17:01:49.122Z,2.20
2018-08-18T17:04:21.512Z,2.40
2018-08-18T17:06:51.227Z,2.10
2018-08-18T17:09:39.643Z,2.25
2018-08-18T17:12:18.522Z,2.67
2018-08-18T17:14:48.503Z,2.25
2018-08-18T17:17:18.099Z,2.22
2018-08-18T17:19:47.728Z,2.00
2018-08-18T17:22:17.225Z,1.80
2018-08-18T17:24:47.370Z,2.25
2018-08-18T17:27:16.944Z,1.77
2018-08-18T17:29:48.058Z,2.05
2018-08-18T17:32:17.494Z,2.10
2018-08-18T17:34:47.031Z,1.77
2018-08-18T17:37:17.276Z,1.70
2018-08-18T17:39:46.731Z,1.77
2018-08-18T17:42:16.250Z,1.80
2018-08-18T17:44:45.772Z,1.82
2018-08-18T17:47:15.269Z,2.00
2018-08-18T17:49:49.825Z,1.65
2018-08-18T17:52:19.424Z,1.90
2018-08-18T17:55:12.163Z,1.62
2018-08-18T17:57:41.657Z,1.70
2018-08-18T18:00:21.091Z,1.90
2018-08-18T18:02:57.995Z,1.87
2018-08-18T18:05:32.683Z,1.87
2018-08-18T18:08:03.928Z,1.40
2018-08-18T18:10:35.813Z,1.77
2018-08-18T18:13:16.906Z,1.90
2018-08-18T18:15:47.985Z,1.70
2018-08-18T18:18:20.136Z,1.67
2018-08-18T18:20:50.945Z,2.20
2018-08-18T18:23:20.964Z,1.95
2018-08-18T18:25:50.457Z,2.22
2018-08-18T18:28:19.998Z,2.33
2018-08-18T18:30:53.070Z,1.82
2018-08-18T18:33:22.586Z,2.92
2018-08-18T18:35:52.297Z,3.60
2018-08-18T18:38:21.786Z,3.52
2018-08-18T18:40:51.302Z,3.67
2018-08-18T18:43:20.825Z,3.08
2018-08-18T18:45:50.598Z,3.50
2018-08-18T18:48:19.872Z,3.00
2018-08-18T18:50:49.964Z,3.12
2018-08-18T18:53:19.463Z,3.37
2018-08-18T18:55:54.013Z,3.40
2018-08-18T18:58:23.504Z,3.50
2018-08-18T19:00:56.967Z,3.42
2018-08-18T19:03:26.625Z,3.27
2018-08-18T19:05:56.136Z,3.25
2018-08-18T19:08:25.521Z,3.02
2018-08-18T19:10:55.023Z,3.30
2018-08-18T19:13:26.895Z,2.87
2018-08-18T19:15:56.360Z,2.65
2018-08-18T19:18:25.820Z,2.70
2018-08-18T19:20:55.286Z,2.47
2018-08-18T19:23:24.702Z,2.62
2018-08-18T19:25:54.246Z,2.58
2018-08-18T19:28:24.161Z,2.22
2018-08-18T19:30:53.523Z,2.77
2018-08-18T19:33:23.080Z,2.27
2018-08-18T19:35:53.421Z,2.65
2018-08-18T19:38:23.855Z,2.30
2018-08-18T19:40:54.782Z,2.30
2018-08-18T19:43:26.519Z,2.55
2018-08-18T19:45:56.662Z,2.60
2018-08-18T19:48:27.313Z,2.22
2018-08-18T19:51:01.864Z,2.58
2018-08-18T19:53:33.640Z,2.60
2018-08-18T19:56:03.546Z,2.35
2018-08-18T19:58:32.916Z,2.45
2018-08-18T20:01:02.294Z,2.62
2018-08-18T20:03:32.022Z,2.27
2018-08-18T20:06:02.468Z,2.40
2018-08-18T20:08:31.948Z,2.70
2018-08-18T20:11:02.027Z,2.25
2018-08-18T20:13:32.520Z,2.42
2018-08-18T20:16:03.465Z,2.37
2018-08-18T20:18:34.492Z,2.50
2018-08-18T20:21:04.039Z,2.55
2018-08-18T20:23:33.426Z,2.42
2018-08-18T20:26:03.176Z,2.40
2018-08-18T20:28:32.546Z,2.15
2018-08-18T20:31:01.950Z,2.52
2018-08-18T20:33:31.307Z,2.33
2018-08-18T20:36:00.756Z,2.52
2018-08-18T20:38:49.529Z,2.45
2018-08-18T20:41:18.925Z,2.20
2018-08-18T20:43:48.940Z,2.60
2018-08-18T20:46:18.312Z,2.25
2018-08-18T20:48:47.801Z,2.60
2018-08-18T20:51:21.276Z,2.80
2018-08-18T20:53:50.638Z,2.37
2018-08-18T20:56:19.951Z,2.50
2018-08-18T20:58:49.421Z,2.30
2018-08-18T21:01:18.772Z,2.80
2018-08-18T21:03:50.324Z,2.12
2018-08-18T21:06:20.297Z,2.52
2018-08-18T21:08:50.072Z,2.30
2018-08-18T21:11:19.658Z,2.45
2018-08-18T21:13:50.404Z,2.60
2018-08-18T21:16:20.768Z,2.70
2018-08-18T21:18:50.243Z,2.83
2018-08-18T21:21:35.825Z,2.27
2018-08-18T21:24:05.452Z,2.83
2018-08-18T21:26:34.844Z,2.83
2018-08-18T21:29:04.353Z,2.72
2018-08-18T21:31:34.993Z,2.58
2018-08-18T21:34:05.760Z,2.80
2018-08-18T21:36:35.678Z,2.98
2018-08-18T21:39:08.780Z,2.72
2018-08-18T21:41:40.471Z,2.98
2018-08-18T21:44:12.201Z,2.72
2018-08-18T21:46:42.262Z,3.37
2018-08-18T21:49:12.502Z,2.85
2018-08-18T21:51:41.901Z,3.22
2018-08-18T21:54:11.292Z,3.37
2018-08-18T21:56:42.265Z,2.90
2018-08-18T21:59:13.075Z,3.25
2018-08-18T22:01:42.632Z,2.87
2018-08-18T22:04:12.208Z,2.83
2018-08-18T22:06:41.687Z,2.95
2018-08-18T22:09:23.214Z,3.15
2018-08-18T22:11:53.049Z,3.33
2018-08-18T22:14:22.468Z,3.08
2018-08-18T22:16:56.960Z,3.05
2018-08-18T22:19:27.821Z,3.42
2018-08-18T22:21:57.322Z,3.65
2018-08-18T22:24:26.803Z,3.37
2018-08-18T22:26:56.407Z,3.47
2018-08-18T22:29:27.073Z,3.40
2018-08-18T22:31:56.493Z,3.77
2018-08-18T22:34:25.851Z,3.30
2018-08-18T22:37:02.720Z,3.58
2018-08-18T22:39:32.048Z,3.35
2018-08-18T22:42:01.444Z,3.55
2018-08-18T22:44:30.767Z,3.92
2018-08-18T22:47:02.630Z,3.70
2018-08-18T22:49:31.982Z,3.60
2018-08-18T22:52:01.390Z,2.90
2018-08-18T22:54:30.920Z,3.12
2018-08-18T22:57:02.056Z,3.75
2018-08-18T22:59:32.217Z,3.55
2018-08-18T23:02:02.131Z,3.40
2018-08-18T23:04:34.626Z,3.67
2018-08-18T23:07:05.119Z,3.52
2018-08-18T23:09:35.357Z,3.17
2018-08-18T23:12:06.921Z,3.83
2018-08-18T23:14:39.601Z,3.80
2018-08-18T23:17:11.098Z,2.90
2018-08-18T23:19:40.648Z,3.37
2018-08-18T23:22:25.543Z,3.47
2018-08-18T23:24:54.951Z,3.42
2018-08-18T23:27:24.421Z,3.42
2018-08-18T23:29:53.786Z,3.80
2018-08-18T23:32:25.450Z,3.77
2018-08-18T23:34:56.318Z,4.00
2018-08-18T23:37:25.864Z,3.90
2018-08-18T23:39:56.885Z,3.92
2018-08-18T23:42:27.176Z,4.17
2018-08-18T23:44:56.710Z,4.17
2018-08-18T23:47:26.295Z,3.87
2018-08-18T23:49:55.928Z,4.53
2018-08-18T23:52:25.371Z,4.10
2018-08-18T23:54:54.825Z,3.65
2018-08-18T23:57:24.350Z,4.12
2018-08-18T23:59:53.934Z,4.33
